sensor_id;sensor_type;location;lat;lon;timestamp;P1;durP1;ratioP1;P2;durP2;ratioP2
4547;SDS011;2286;51.570;7.090;2022-07-04T00:01:41;2.20;;;1.03;;
4547;SDS011;2286;51.570;7.090;2022-07-04T00:04:10;1.63;;;1.17;;
4547;SDS011;2286;51.570;7.090;2022-07-04T00:06:36;3.63;;;1.53;;
4547;SDS011;2286;51.570;7.090;2022-07-04T00:09:03;1.30;;;1.10;;
4547;SDS011;2286;51.570;7.090;2022-07-04T00:11:30;2.90;;;1.37;;
4547;SDS011;2286;51.570;7.090;2022-07-04T00:13:57;2.23;;;1.30;;
4547;SDS011;2286;51.570;7.090;2022-07-04T00:16:24;3.03;;;1.07;;
4547;SDS011;2286;51.570;7.090;2022-07-04T00:18:51;1.33;;;1.03;;
4547;SDS011;2286;51.570;7.090;2022-07-04T00:21:19;3.17;;;1.00;;
4547;SDS011;2286;51.570;7.090;2022-07-04T00:23:46;4.03;;;1.10;;
4547;SDS011;2286;51.570;7.090;2022-07-04T00:26:14;2.73;;;1.23;;
4547;SDS011;2286;51.570;7.090;2022-07-04T00:28:41;1.63;;;1.17;;
4547;SDS011;2286;51.570;7.090;2022-07-04T00:31:08;3.00;;;1.23;;
4547;SDS011;2286;51.570;7.090;2022-07-04T00:33:36;4.20;;;1.40;;
4547;SDS011;2286;51.570;7.090;2022-07-04T00:36:03;4.07;;;1.47;;
4547;SDS011;2286;51.570;7.090;2022-07-04T00:38:32;1.93;;;1.30;;
4547;SDS011;2286;51.570;7.090;2022-07-04T00:40:58;2.57;;;1.27;;
4547;SDS011;2286;51.570;7.090;2022-07-04T00:43:27;2.70;;;1.20;;
4547;SDS011;2286;51.570;7.090;2022-07-04T00:45:54;2.70;;;1.30;;
4547;SDS011;2286;51.570;7.090;2022-07-04T00:48:21;4.20;;;1.23;;
4547;SDS011;2286;51.570;7.090;2022-07-04T00:50:49;2.17;;;1.97;;
4547;SDS011;2286;51.570;7.090;2022-07-04T00:53:17;3.00;;;1.50;;
4547;SDS011;2286;51.570;7.090;2022-07-04T00:55:49;3.30;;;1.40;;
4547;SDS011;2286;51.570;7.090;2022-07-04T00:58:16;14.63;;;1.90;;
4547;SDS011;2286;51.570;7.090;2022-07-04T01:00:46;6.13;;;1.60;;
4547;SDS011;2286;51.570;7.090;2022-07-04T01:03:13;3.00;;;1.60;;
4547;SDS011;2286;51.570;7.090;2022-07-04T01:05:40;3.30;;;1.73;;
4547;SDS011;2286;51.570;7.090;2022-07-04T01:08:09;4.67;;;1.40;;
4547;SDS011;2286;51.570;7.090;2022-07-04T01:10:36;2.07;;;1.20;;
4547;SDS011;2286;51.570;7.090;2022-07-04T01:13:04;2.07;;;1.50;;
4547;SDS011;2286;51.570;7.090;2022-07-04T01:15:31;2.47;;;1.97;;
4547;SDS011;2286;51.570;7.090;2022-07-04T01:17:58;3.93;;;2.13;;
4547;SDS011;2286;51.570;7.090;2022-07-04T01:20:27;1.70;;;1.30;;
4547;SDS011;2286;51.570;7.090;2022-07-04T01:23:01;1.97;;;1.33;;
4547;SDS011;2286;51.570;7.090;2022-07-04T01:25:28;2.70;;;1.70;;
4547;SDS011;2286;51.570;7.090;2022-07-04T01:27:55;2.43;;;1.30;;
4547;SDS011;2286;51.570;7.090;2022-07-04T01:30:22;1.73;;;1.30;;
4547;SDS011;2286;51.570;7.090;2022-07-04T01:32:50;1.50;;;1.40;;
4547;SDS011;2286;51.570;7.090;2022-07-04T01:35:17;3.67;;;1.47;;
4547;SDS011;2286;51.570;7.090;2022-07-04T01:37:45;5.30;;;1.70;;
4547;SDS011;2286;51.570;7.090;2022-07-04T01:40:12;3.00;;;1.70;;
4547;SDS011;2286;51.570;7.090;2022-07-04T01:42:40;2.60;;;1.70;;
4547;SDS011;2286;51.570;7.090;2022-07-04T01:45:09;2.87;;;1.77;;
4547;SDS011;2286;51.570;7.090;2022-07-04T01:47:37;3.43;;;1.80;;
4547;SDS011;2286;51.570;7.090;2022-07-04T01:50:06;2.60;;;1.53;;
4547;SDS011;2286;51.570;7.090;2022-07-04T01:52:34;2.00;;;1.80;;
4547;SDS011;2286;51.570;7.090;2022-07-04T01:55:04;2.03;;;1.80;;
4547;SDS011;2286;51.570;7.090;2022-07-04T01:57:32;5.63;;;2.10;;
4547;SDS011;2286;51.570;7.090;2022-07-04T02:00:00;2.97;;;2.00;;
4547;SDS011;2286;51.570;7.090;2022-07-04T02:02:45;3.03;;;1.63;;
4547;SDS011;2286;51.570;7.090;2022-07-04T02:05:12;1.97;;;1.67;;
4547;SDS011;2286;51.570;7.090;2022-07-04T02:07:40;2.93;;;1.73;;
4547;SDS011;2286;51.570;7.090;2022-07-04T02:10:08;3.73;;;2.00;;
4547;SDS011;2286;51.570;7.090;2022-07-04T02:12:36;2.77;;;2.00;;
4547;SDS011;2286;51.570;7.090;2022-07-04T02:15:20;2.97;;;1.80;;
4547;SDS011;2286;51.570;7.090;2022-07-04T02:17:47;3.50;;;1.93;;
4547;SDS011;2286;51.570;7.090;2022-07-04T02:20:14;5.43;;;2.27;;
4547;SDS011;2286;51.570;7.090;2022-07-04T02:22:41;3.73;;;2.20;;
4547;SDS011;2286;51.570;7.090;2022-07-04T02:25:09;2.87;;;1.90;;
4547;SDS011;2286;51.570;7.090;2022-07-04T02:27:37;3.70;;;1.83;;
4547;SDS011;2286;51.570;7.090;2022-07-04T02:30:04;4.90;;;2.63;;
4547;SDS011;2286;51.570;7.090;2022-07-04T02:32:32;2.80;;;2.60;;
4547;SDS011;2286;51.570;7.090;2022-07-04T02:34:59;3.80;;;2.43;;
4547;SDS011;2286;51.570;7.090;2022-07-04T02:37:26;3.10;;;2.53;;
4547;SDS011;2286;51.570;7.090;2022-07-04T02:39:53;2.60;;;2.23;;
4547;SDS011;2286;51.570;7.090;2022-07-04T02:42:21;2.83;;;2.43;;
4547;SDS011;2286;51.570;7.090;2022-07-04T02:44:49;4.70;;;2.60;;
4547;SDS011;2286;51.570;7.090;2022-07-04T02:47:16;2.50;;;2.30;;
4547;SDS011;2286;51.570;7.090;2022-07-04T02:49:43;4.03;;;2.80;;
4547;SDS011;2286;51.570;7.090;2022-07-04T02:52:10;3.67;;;2.93;;
4547;SDS011;2286;51.570;7.090;2022-07-04T02:54:37;3.40;;;2.63;;
4547;SDS011;2286;51.570;7.090;2022-07-04T02:57:04;3.63;;;2.87;;
4547;SDS011;2286;51.570;7.090;2022-07-04T02:59:32;2.87;;;2.63;;
4547;SDS011;2286;51.570;7.090;2022-07-04T03:01:59;4.53;;;2.90;;
4547;SDS011;2286;51.570;7.090;2022-07-04T03:04:26;4.73;;;3.00;;
4547;SDS011;2286;51.570;7.090;2022-07-04T03:06:53;3.20;;;2.90;;
4547;SDS011;2286;51.570;7.090;2022-07-04T03:09:20;5.67;;;2.80;;
4547;SDS011;2286;51.570;7.090;2022-07-04T03:11:47;3.17;;;2.87;;
4547;SDS011;2286;51.570;7.090;2022-07-04T03:14:14;3.50;;;2.70;;
4547;SDS011;2286;51.570;7.090;2022-07-04T03:16:42;6.20;;;3.80;;
4547;SDS011;2286;51.570;7.090;2022-07-04T03:19:08;9.80;;;3.63;;
4547;SDS011;2286;51.570;7.090;2022-07-04T03:21:35;4.63;;;3.03;;
4547;SDS011;2286;51.570;7.090;2022-07-04T03:24:02;11.93;;;3.73;;
4547;SDS011;2286;51.570;7.090;2022-07-04T03:26:31;5.33;;;3.27;;
4547;SDS011;2286;51.570;7.090;2022-07-04T03:28:59;5.87;;;3.47;;
4547;SDS011;2286;51.570;7.090;2022-07-04T03:31:27;4.20;;;2.60;;
4547;SDS011;2286;51.570;7.090;2022-07-04T03:33:56;3.97;;;3.03;;
4547;SDS011;2286;51.570;7.090;2022-07-04T03:36:23;3.57;;;2.63;;
4547;SDS011;2286;51.570;7.090;2022-07-04T03:38:49;3.23;;;2.40;;
4547;SDS011;2286;51.570;7.090;2022-07-04T03:41:16;7.00;;;3.10;;
4547;SDS011;2286;51.570;7.090;2022-07-04T03:43:43;4.07;;;2.80;;
4547;SDS011;2286;51.570;7.090;2022-07-04T03:46:10;4.30;;;3.20;;
4547;SDS011;2286;51.570;7.090;2022-07-04T03:48:37;5.27;;;3.20;;
4547;SDS011;2286;51.570;7.090;2022-07-04T03:51:05;5.20;;;2.97;;
4547;SDS011;2286;51.570;7.090;2022-07-04T03:53:32;4.50;;;3.23;;
4547;SDS011;2286;51.570;7.090;2022-07-04T03:55:59;3.37;;;3.07;;
4547;SDS011;2286;51.570;7.090;2022-07-04T03:58:25;4.30;;;4.00;;
4547;SDS011;2286;51.570;7.090;2022-07-04T04:00:52;9.50;;;4.07;;
4547;SDS011;2286;51.570;7.090;2022-07-04T04:03:19;10.23;;;4.33;;
4547;SDS011;2286;51.570;7.090;2022-07-04T04:06:05;5.47;;;3.47;;
4547;SDS011;2286;51.570;7.090;2022-07-04T04:08:32;4.00;;;3.70;;
4547;SDS011;2286;51.570;7.090;2022-07-04T04:10:59;6.13;;;4.43;;
4547;SDS011;2286;51.570;7.090;2022-07-04T04:13:26;4.00;;;3.60;;
4547;SDS011;2286;51.570;7.090;2022-07-04T04:15:53;6.10;;;4.40;;
4547;SDS011;2286;51.570;7.090;2022-07-04T04:18:20;6.07;;;3.73;;
4547;SDS011;2286;51.570;7.090;2022-07-04T04:20:46;12.30;;;3.97;;
4547;SDS011;2286;51.570;7.090;2022-07-04T04:23:15;8.47;;;4.50;;
4547;SDS011;2286;51.570;7.090;2022-07-04T04:25:41;11.90;;;4.30;;
4547;SDS011;2286;51.570;7.090;2022-07-04T04:28:08;4.93;;;4.43;;
4547;SDS011;2286;51.570;7.090;2022-07-04T04:30:35;10.30;;;5.50;;
4547;SDS011;2286;51.570;7.090;2022-07-04T04:33:02;6.33;;;5.77;;
4547;SDS011;2286;51.570;7.090;2022-07-04T04:35:29;9.57;;;7.17;;
4547;SDS011;2286;51.570;7.090;2022-07-04T04:37:56;12.53;;;6.57;;
4547;SDS011;2286;51.570;7.090;2022-07-04T04:40:24;9.37;;;6.60;;
4547;SDS011;2286;51.570;7.090;2022-07-04T04:42:51;11.30;;;6.83;;
4547;SDS011;2286;51.570;7.090;2022-07-04T04:45:18;9.83;;;6.13;;
4547;SDS011;2286;51.570;7.090;2022-07-04T04:47:44;10.00;;;6.87;;
4547;SDS011;2286;51.570;7.090;2022-07-04T04:50:11;10.00;;;6.80;;
4547;SDS011;2286;51.570;7.090;2022-07-04T04:52:40;8.83;;;7.13;;
4547;SDS011;2286;51.570;7.090;2022-07-04T04:55:07;8.50;;;6.33;;
4547;SDS011;2286;51.570;7.090;2022-07-04T04:57:35;10.20;;;7.60;;
4547;SDS011;2286;51.570;7.090;2022-07-04T05:00:03;8.57;;;7.10;;
4547;SDS011;2286;51.570;7.090;2022-07-04T05:02:30;9.20;;;7.40;;
4547;SDS011;2286;51.570;7.090;2022-07-04T05:04:57;10.63;;;6.60;;
4547;SDS011;2286;51.570;7.090;2022-07-04T05:07:24;8.60;;;7.03;;
4547;SDS011;2286;51.570;7.090;2022-07-04T05:09:51;8.10;;;6.13;;
4547;SDS011;2286;51.570;7.090;2022-07-04T05:12:23;8.57;;;6.43;;
4547;SDS011;2286;51.570;7.090;2022-07-04T05:14:51;8.63;;;6.00;;
4547;SDS011;2286;51.570;7.090;2022-07-04T05:17:18;11.10;;;7.37;;
4547;SDS011;2286;51.570;7.090;2022-07-04T05:19:45;9.10;;;6.50;;
4547;SDS011;2286;51.570;7.090;2022-07-04T05:22:13;13.07;;;7.50;;
4547;SDS011;2286;51.570;7.090;2022-07-04T05:24:40;8.70;;;7.07;;
4547;SDS011;2286;51.570;7.090;2022-07-04T05:27:07;11.80;;;5.93;;
4547;SDS011;2286;51.570;7.090;2022-07-04T05:29:34;9.40;;;6.60;;
4547;SDS011;2286;51.570;7.090;2022-07-04T05:32:04;10.20;;;7.27;;
4547;SDS011;2286;51.570;7.090;2022-07-04T05:34:31;7.30;;;6.60;;
4547;SDS011;2286;51.570;7.090;2022-07-04T05:36:58;8.43;;;6.40;;
4547;SDS011;2286;51.570;7.090;2022-07-04T05:39:25;7.13;;;6.30;;
4547;SDS011;2286;51.570;7.090;2022-07-04T05:41:52;11.37;;;6.53;;
4547;SDS011;2286;51.570;7.090;2022-07-04T05:44:18;9.03;;;6.90;;
4547;SDS011;2286;51.570;7.090;2022-07-04T05:46:45;8.30;;;6.03;;
4547;SDS011;2286;51.570;7.090;2022-07-04T05:49:14;13.33;;;6.03;;
4547;SDS011;2286;51.570;7.090;2022-07-04T05:51:41;10.97;;;5.37;;
4547;SDS011;2286;51.570;7.090;2022-07-04T05:54:08;10.30;;;5.07;;
4547;SDS011;2286;51.570;7.090;2022-07-04T05:56:34;10.53;;;5.47;;
4547;SDS011;2286;51.570;7.090;2022-07-04T05:59:02;9.97;;;6.40;;
4547;SDS011;2286;51.570;7.090;2022-07-04T06:01:29;9.40;;;6.03;;
4547;SDS011;2286;51.570;7.090;2022-07-04T06:03:56;10.57;;;7.17;;
4547;SDS011;2286;51.570;7.090;2022-07-04T06:06:24;10.83;;;6.23;;
4547;SDS011;2286;51.570;7.090;2022-07-04T06:08:51;7.70;;;5.90;;
4547;SDS011;2286;51.570;7.090;2022-07-04T06:11:18;13.50;;;7.33;;
4547;SDS011;2286;51.570;7.090;2022-07-04T06:13:45;12.07;;;7.63;;
4547;SDS011;2286;51.570;7.090;2022-07-04T06:16:11;7.70;;;5.87;;
4547;SDS011;2286;51.570;7.090;2022-07-04T06:18:38;10.20;;;5.40;;
4547;SDS011;2286;51.570;7.090;2022-07-04T06:21:05;17.23;;;7.30;;
4547;SDS011;2286;51.570;7.090;2022-07-04T06:23:33;12.20;;;6.17;;
4547;SDS011;2286;51.570;7.090;2022-07-04T06:26:01;7.90;;;6.00;;
4547;SDS011;2286;51.570;7.090;2022-07-04T06:28:28;16.70;;;7.17;;
4547;SDS011;2286;51.570;7.090;2022-07-04T06:30:55;10.00;;;5.53;;
4547;SDS011;2286;51.570;7.090;2022-07-04T06:33:22;11.37;;;5.50;;
4547;SDS011;2286;51.570;7.090;2022-07-04T06:35:49;11.10;;;5.27;;
4547;SDS011;2286;51.570;7.090;2022-07-04T06:38:20;10.47;;;4.93;;
4547;SDS011;2286;51.570;7.090;2022-07-04T06:40:50;10.23;;;3.93;;
4547;SDS011;2286;51.570;7.090;2022-07-04T06:43:19;17.07;;;4.40;;
4547;SDS011;2286;51.570;7.090;2022-07-04T06:45:46;7.20;;;3.17;;
4547;SDS011;2286;51.570;7.090;2022-07-04T06:48:13;3.53;;;2.80;;
4547;SDS011;2286;51.570;7.090;2022-07-04T06:50:39;4.90;;;2.73;;
4547;SDS011;2286;51.570;7.090;2022-07-04T06:53:07;4.30;;;2.60;;
4547;SDS011;2286;51.570;7.090;2022-07-04T06:55:35;4.80;;;2.40;;
4547;SDS011;2286;51.570;7.090;2022-07-04T06:58:04;4.40;;;2.80;;
4547;SDS011;2286;51.570;7.090;2022-07-04T07:00:32;8.03;;;4.17;;
4547;SDS011;2286;51.570;7.090;2022-07-04T07:03:00;4.90;;;3.47;;
4547;SDS011;2286;51.570;7.090;2022-07-04T07:05:27;8.00;;;3.70;;
4547;SDS011;2286;51.570;7.090;2022-07-04T07:07:55;5.43;;;3.50;;
4547;SDS011;2286;51.570;7.090;2022-07-04T07:10:22;4.40;;;3.57;;
4547;SDS011;2286;51.570;7.090;2022-07-04T07:12:49;7.43;;;4.07;;
4547;SDS011;2286;51.570;7.090;2022-07-04T07:15:17;10.67;;;4.70;;
4547;SDS011;2286;51.570;7.090;2022-07-04T07:17:44;8.33;;;3.50;;
4547;SDS011;2286;51.570;7.090;2022-07-04T07:20:11;8.10;;;3.80;;
4547;SDS011;2286;51.570;7.090;2022-07-04T07:22:38;5.60;;;3.83;;
4547;SDS011;2286;51.570;7.090;2022-07-04T07:25:06;7.50;;;3.10;;
4547;SDS011;2286;51.570;7.090;2022-07-04T07:27:34;5.13;;;3.47;;
4547;SDS011;2286;51.570;7.090;2022-07-04T07:30:01;3.67;;;2.47;;
4547;SDS011;2286;51.570;7.090;2022-07-04T07:32:29;4.17;;;2.67;;
4547;SDS011;2286;51.570;7.090;2022-07-04T07:34:56;4.27;;;3.30;;
4547;SDS011;2286;51.570;7.090;2022-07-04T07:37:23;4.73;;;2.40;;
4547;SDS011;2286;51.570;7.090;2022-07-04T07:39:51;4.00;;;2.43;;
4547;SDS011;2286;51.570;7.090;2022-07-04T07:42:18;3.63;;;2.37;;
4547;SDS011;2286;51.570;7.090;2022-07-04T07:44:45;3.27;;;2.10;;
4547;SDS011;2286;51.570;7.090;2022-07-04T07:47:12;3.43;;;2.13;;
4547;SDS011;2286;51.570;7.090;2022-07-04T07:49:41;5.30;;;2.10;;
4547;SDS011;2286;51.570;7.090;2022-07-04T07:52:09;4.13;;;2.47;;
4547;SDS011;2286;51.570;7.090;2022-07-04T07:54:36;4.10;;;2.00;;
4547;SDS011;2286;51.570;7.090;2022-07-04T07:57:03;4.60;;;2.00;;
4547;SDS011;2286;51.570;7.090;2022-07-04T07:59:30;5.03;;;1.80;;
4547;SDS011;2286;51.570;7.090;2022-07-04T08:01:57;5.60;;;2.27;;
4547;SDS011;2286;51.570;7.090;2022-07-04T08:04:24;7.53;;;3.13;;
4547;SDS011;2286;51.570;7.090;2022-07-04T08:07:04;2.83;;;1.93;;
4547;SDS011;2286;51.570;7.090;2022-07-04T08:09:34;4.20;;;2.23;;
4547;SDS011;2286;51.570;7.090;2022-07-04T08:12:02;6.27;;;1.60;;
4547;SDS011;2286;51.570;7.090;2022-07-04T08:14:31;4.03;;;1.57;;
4547;SDS011;2286;51.570;7.090;2022-07-04T08:16:59;3.17;;;1.90;;
4547;SDS011;2286;51.570;7.090;2022-07-04T08:19:26;4.27;;;1.73;;
4547;SDS011;2286;51.570;7.090;2022-07-04T08:21:53;3.53;;;1.33;;
4547;SDS011;2286;51.570;7.090;2022-07-04T08:24:22;2.60;;;1.67;;
4547;SDS011;2286;51.570;7.090;2022-07-04T08:26:48;5.43;;;1.70;;
4547;SDS011;2286;51.570;7.090;2022-07-04T08:29:18;3.40;;;1.60;;
4547;SDS011;2286;51.570;7.090;2022-07-04T08:31:45;4.70;;;1.83;;
4547;SDS011;2286;51.570;7.090;2022-07-04T08:34:12;4.50;;;2.10;;
4547;SDS011;2286;51.570;7.090;2022-07-04T08:36:39;2.40;;;2.07;;
4547;SDS011;2286;51.570;7.090;2022-07-04T08:39:06;7.50;;;1.50;;
4547;SDS011;2286;51.570;7.090;2022-07-04T08:41:35;3.63;;;1.80;;
4547;SDS011;2286;51.570;7.090;2022-07-04T08:44:05;3.50;;;1.20;;
4547;SDS011;2286;51.570;7.090;2022-07-04T08:46:35;2.90;;;1.70;;
4547;SDS011;2286;51.570;7.090;2022-07-04T08:49:05;5.23;;;1.20;;
4547;SDS011;2286;51.570;7.090;2022-07-04T08:51:38;2.60;;;1.40;;
4547;SDS011;2286;51.570;7.090;2022-07-04T08:54:12;3.43;;;1.10;;
4547;SDS011;2286;51.570;7.090;2022-07-04T08:56:59;2.70;;;1.43;;
4547;SDS011;2286;51.570;7.090;2022-07-04T08:59:44;4.20;;;1.60;;
4547;SDS011;2286;51.570;7.090;2022-07-04T09:02:15;2.70;;;1.30;;
4547;SDS011;2286;51.570;7.090;2022-07-04T09:04:43;3.50;;;1.80;;
4547;SDS011;2286;51.570;7.090;2022-07-04T09:07:10;3.60;;;1.33;;
4547;SDS011;2286;51.570;7.090;2022-07-04T09:09:37;3.00;;;1.53;;
4547;SDS011;2286;51.570;7.090;2022-07-04T09:12:07;3.47;;;1.53;;
4547;SDS011;2286;51.570;7.090;2022-07-04T09:14:35;2.97;;;1.43;;
4547;SDS011;2286;51.570;7.090;2022-07-04T09:17:02;3.73;;;1.57;;
4547;SDS011;2286;51.570;7.090;2022-07-04T09:19:30;4.67;;;1.70;;
4547;SDS011;2286;51.570;7.090;2022-07-04T09:21:59;4.90;;;2.00;;
4547;SDS011;2286;51.570;7.090;2022-07-04T09:24:40;5.83;;;1.80;;
4547;SDS011;2286;51.570;7.090;2022-07-04T09:27:12;4.07;;;2.07;;
4547;SDS011;2286;51.570;7.090;2022-07-04T09:29:54;4.60;;;2.40;;
4547;SDS011;2286;51.570;7.090;2022-07-04T09:32:32;4.47;;;1.90;;
4547;SDS011;2286;51.570;7.090;2022-07-04T09:35:00;3.47;;;2.00;;
4547;SDS011;2286;51.570;7.090;2022-07-04T09:37:38;5.80;;;1.80;;
4547;SDS011;2286;51.570;7.090;2022-07-04T09:40:07;5.40;;;2.10;;
4547;SDS011;2286;51.570;7.090;2022-07-04T09:42:38;3.70;;;1.97;;
4547;SDS011;2286;51.570;7.090;2022-07-04T09:45:07;3.10;;;1.20;;
4547;SDS011;2286;51.570;7.090;2022-07-04T09:47:36;2.63;;;1.40;;
4547;SDS011;2286;51.570;7.090;2022-07-04T09:50:05;8.13;;;1.60;;
4547;SDS011;2286;51.570;7.090;2022-07-04T09:52:43;2.63;;;1.20;;
4547;SDS011;2286;51.570;7.090;2022-07-04T09:55:26;6.50;;;1.83;;
4547;SDS011;2286;51.570;7.090;2022-07-04T09:57:56;4.17;;;1.50;;
4547;SDS011;2286;51.570;7.090;2022-07-04T10:00:25;4.10;;;1.60;;
4547;SDS011;2286;51.570;7.090;2022-07-04T10:02:53;2.07;;;1.10;;
4547;SDS011;2286;51.570;7.090;2022-07-04T10:05:22;3.23;;;1.33;;
4547;SDS011;2286;51.570;7.090;2022-07-04T10:07:50;4.17;;;1.60;;
4547;SDS011;2286;51.570;7.090;2022-07-04T10:10:22;3.07;;;2.10;;
4547;SDS011;2286;51.570;7.090;2022-07-04T10:12:51;3.93;;;1.70;;
4547;SDS011;2286;51.570;7.090;2022-07-04T10:15:21;1.83;;;1.40;;
4547;SDS011;2286;51.570;7.090;2022-07-04T10:17:48;3.70;;;1.67;;
4547;SDS011;2286;51.570;7.090;2022-07-04T10:20:15;1.63;;;1.10;;
4547;SDS011;2286;51.570;7.090;2022-07-04T10:22:42;4.50;;;1.37;;
4547;SDS011;2286;51.570;7.090;2022-07-04T10:25:09;3.23;;;1.43;;
4547;SDS011;2286;51.570;7.090;2022-07-04T10:27:37;2.60;;;1.40;;
4547;SDS011;2286;51.570;7.090;2022-07-04T10:30:05;3.20;;;1.57;;
4547;SDS011;2286;51.570;7.090;2022-07-04T10:32:36;2.70;;;1.30;;
4547;SDS011;2286;51.570;7.090;2022-07-04T10:35:05;2.37;;;1.63;;
4547;SDS011;2286;51.570;7.090;2022-07-04T10:40:41;2.43;;;1.60;;
4547;SDS011;2286;51.570;7.090;2022-07-04T10:46:46;2.40;;;1.67;;
4547;SDS011;2286;51.570;7.090;2022-07-04T10:49:20;3.50;;;1.80;;
4547;SDS011;2286;51.570;7.090;2022-07-04T10:51:49;3.00;;;1.60;;
4547;SDS011;2286;51.570;7.090;2022-07-04T10:54:17;1.97;;;1.63;;
4547;SDS011;2286;51.570;7.090;2022-07-04T10:56:49;3.27;;;1.37;;
4547;SDS011;2286;51.570;7.090;2022-07-04T10:59:19;2.03;;;1.37;;
4547;SDS011;2286;51.570;7.090;2022-07-04T11:04:52;3.67;;;1.30;;
4547;SDS011;2286;51.570;7.090;2022-07-04T11:10:22;5.27;;;1.73;;
4547;SDS011;2286;51.570;7.090;2022-07-04T11:13:02;1.67;;;1.27;;
4547;SDS011;2286;51.570;7.090;2022-07-04T11:18:40;3.10;;;1.40;;
4547;SDS011;2286;51.570;7.090;2022-07-04T11:21:19;2.70;;;1.50;;
4547;SDS011;2286;51.570;7.090;2022-07-04T11:23:51;1.97;;;1.30;;
4547;SDS011;2286;51.570;7.090;2022-07-04T11:26:19;2.60;;;1.60;;
4547;SDS011;2286;51.570;7.090;2022-07-04T11:28:47;2.27;;;0.90;;
4547;SDS011;2286;51.570;7.090;2022-07-04T11:31:14;2.30;;;0.93;;
4547;SDS011;2286;51.570;7.090;2022-07-04T11:33:43;2.60;;;1.23;;
4547;SDS011;2286;51.570;7.090;2022-07-04T11:36:11;4.60;;;1.30;;
4547;SDS011;2286;51.570;7.090;2022-07-04T11:38:46;2.00;;;1.00;;
4547;SDS011;2286;51.570;7.090;2022-07-04T11:41:16;1.93;;;1.10;;
4547;SDS011;2286;51.570;7.090;2022-07-04T11:44:04;3.57;;;1.60;;
4547;SDS011;2286;51.570;7.090;2022-07-04T11:46:50;1.67;;;1.30;;
4547;SDS011;2286;51.570;7.090;2022-07-04T11:49:17;2.37;;;1.33;;
4547;SDS011;2286;51.570;7.090;2022-07-04T11:51:46;2.30;;;1.30;;
4547;SDS011;2286;51.570;7.090;2022-07-04T11:54:15;2.47;;;1.10;;
4547;SDS011;2286;51.570;7.090;2022-07-04T11:56:43;2.80;;;1.13;;
4547;SDS011;2286;51.570;7.090;2022-07-04T11:59:11;1.50;;;0.90;;
4547;SDS011;2286;51.570;7.090;2022-07-04T12:01:39;2.07;;;1.10;;
4547;SDS011;2286;51.570;7.090;2022-07-04T12:04:11;1.93;;;1.20;;
4547;SDS011;2286;51.570;7.090;2022-07-04T12:06:42;2.60;;;1.10;;
4547;SDS011;2286;51.570;7.090;2022-07-04T12:09:09;1.40;;;0.97;;
4547;SDS011;2286;51.570;7.090;2022-07-04T12:11:55;4.50;;;1.37;;
4547;SDS011;2286;51.570;7.090;2022-07-04T12:14:23;3.60;;;1.50;;
4547;SDS011;2286;51.570;7.090;2022-07-04T12:19:51;2.03;;;1.10;;
4547;SDS011;2286;51.570;7.090;2022-07-04T12:22:25;2.00;;;0.93;;
4547;SDS011;2286;51.570;7.090;2022-07-04T12:24:54;1.50;;;1.00;;
4547;SDS011;2286;51.570;7.090;2022-07-04T12:27:23;1.37;;;1.10;;
4547;SDS011;2286;51.570;7.090;2022-07-04T12:29:51;1.47;;;0.90;;
4547;SDS011;2286;51.570;7.090;2022-07-04T12:32:19;3.03;;;1.20;;
4547;SDS011;2286;51.570;7.090;2022-07-04T12:34:46;1.97;;;0.90;;
4547;SDS011;2286;51.570;7.090;2022-07-04T12:37:14;2.20;;;1.10;;
4547;SDS011;2286;51.570;7.090;2022-07-04T12:39:42;1.07;;;0.80;;
4547;SDS011;2286;51.570;7.090;2022-07-04T12:42:11;3.50;;;1.10;;
4547;SDS011;2286;51.570;7.090;2022-07-04T12:44:41;1.83;;;1.27;;
4547;SDS011;2286;51.570;7.090;2022-07-04T12:47:09;1.90;;;1.00;;
4547;SDS011;2286;51.570;7.090;2022-07-04T12:49:41;3.07;;;1.33;;
4547;SDS011;2286;51.570;7.090;2022-07-04T12:52:11;2.13;;;1.07;;
4547;SDS011;2286;51.570;7.090;2022-07-04T12:54:39;1.10;;;0.90;;
4547;SDS011;2286;51.570;7.090;2022-07-04T12:57:10;3.80;;;1.10;;
4547;SDS011;2286;51.570;7.090;2022-07-04T12:59:38;2.57;;;1.10;;
4547;SDS011;2286;51.570;7.090;2022-07-04T13:02:07;1.60;;;1.13;;
4547;SDS011;2286;51.570;7.090;2022-07-04T13:04:35;1.83;;;1.10;;
4547;SDS011;2286;51.570;7.090;2022-07-04T13:07:11;3.77;;;1.00;;
4547;SDS011;2286;51.570;7.090;2022-07-04T13:09:39;4.90;;;1.20;;
4547;SDS011;2286;51.570;7.090;2022-07-04T13:12:07;3.47;;;1.30;;
4547;SDS011;2286;51.570;7.090;2022-07-04T13:14:54;3.70;;;1.20;;
4547;SDS011;2286;51.570;7.090;2022-07-04T13:17:23;1.63;;;1.20;;
4547;SDS011;2286;51.570;7.090;2022-07-04T13:19:51;1.60;;;1.03;;
4547;SDS011;2286;51.570;7.090;2022-07-04T13:22:18;3.10;;;1.30;;
4547;SDS011;2286;51.570;7.090;2022-07-04T13:24:46;1.30;;;1.13;;
4547;SDS011;2286;51.570;7.090;2022-07-04T13:27:13;1.93;;;1.27;;
4547;SDS011;2286;51.570;7.090;2022-07-04T13:29:39;4.80;;;1.20;;
4547;SDS011;2286;51.570;7.090;2022-07-04T13:32:06;2.07;;;1.13;;
4547;SDS011;2286;51.570;7.090;2022-07-04T13:34:35;1.90;;;1.07;;
4547;SDS011;2286;51.570;7.090;2022-07-04T13:37:03;3.30;;;1.20;;
4547;SDS011;2286;51.570;7.090;2022-07-04T13:39:31;5.63;;;1.57;;
4547;SDS011;2286;51.570;7.090;2022-07-04T13:41:58;2.27;;;1.10;;
4547;SDS011;2286;51.570;7.090;2022-07-04T13:44:26;1.80;;;1.37;;
4547;SDS011;2286;51.570;7.090;2022-07-04T13:46:53;1.87;;;1.03;;
4547;SDS011;2286;51.570;7.090;2022-07-04T13:49:21;3.40;;;1.10;;
4547;SDS011;2286;51.570;7.090;2022-07-04T13:51:49;1.80;;;1.30;;
4547;SDS011;2286;51.570;7.090;2022-07-04T13:54:16;5.97;;;1.27;;
4547;SDS011;2286;51.570;7.090;2022-07-04T13:56:43;1.57;;;1.10;;
4547;SDS011;2286;51.570;7.090;2022-07-04T13:59:10;2.93;;;1.27;;
4547;SDS011;2286;51.570;7.090;2022-07-04T14:01:38;1.73;;;1.03;;
4547;SDS011;2286;51.570;7.090;2022-07-04T14:04:05;1.53;;;1.10;;
4547;SDS011;2286;51.570;7.090;2022-07-04T14:06:32;1.60;;;1.03;;
4547;SDS011;2286;51.570;7.090;2022-07-04T14:09:00;2.00;;;1.10;;
4547;SDS011;2286;51.570;7.090;2022-07-04T14:11:27;2.30;;;1.03;;
4547;SDS011;2286;51.570;7.090;2022-07-04T14:13:54;4.90;;;1.67;;
4547;SDS011;2286;51.570;7.090;2022-07-04T14:16:21;2.07;;;1.53;;
4547;SDS011;2286;51.570;7.090;2022-07-04T14:18:48;2.20;;;1.30;;
4547;SDS011;2286;51.570;7.090;2022-07-04T14:21:15;1.67;;;1.30;;
4547;SDS011;2286;51.570;7.090;2022-07-04T14:23:42;3.23;;;1.30;;
4547;SDS011;2286;51.570;7.090;2022-07-04T14:26:12;1.60;;;0.93;;
4547;SDS011;2286;51.570;7.090;2022-07-04T14:28:39;1.67;;;1.10;;
4547;SDS011;2286;51.570;7.090;2022-07-04T14:31:07;1.73;;;1.17;;
4547;SDS011;2286;51.570;7.090;2022-07-04T14:33:34;1.97;;;1.40;;
4547;SDS011;2286;51.570;7.090;2022-07-04T14:36:01;1.77;;;1.23;;
4547;SDS011;2286;51.570;7.090;2022-07-04T14:38:31;2.17;;;1.07;;
4547;SDS011;2286;51.570;7.090;2022-07-04T14:40:58;2.27;;;1.10;;
4547;SDS011;2286;51.570;7.090;2022-07-04T14:43:36;1.83;;;1.40;;
4547;SDS011;2286;51.570;7.090;2022-07-04T14:46:04;1.90;;;1.10;;
4547;SDS011;2286;51.570;7.090;2022-07-04T14:48:31;2.03;;;1.30;;
4547;SDS011;2286;51.570;7.090;2022-07-04T14:50:58;1.87;;;1.20;;
4547;SDS011;2286;51.570;7.090;2022-07-04T14:53:25;5.47;;;1.37;;
4547;SDS011;2286;51.570;7.090;2022-07-04T14:55:52;1.20;;;1.10;;
4547;SDS011;2286;51.570;7.090;2022-07-04T14:58:19;1.73;;;1.30;;
4547;SDS011;2286;51.570;7.090;2022-07-04T15:00:47;4.80;;;1.27;;
4547;SDS011;2286;51.570;7.090;2022-07-04T15:03:14;4.83;;;1.10;;
4547;SDS011;2286;51.570;7.090;2022-07-04T15:05:42;4.57;;;1.30;;
4547;SDS011;2286;51.570;7.090;2022-07-04T15:08:09;3.70;;;1.00;;
4547;SDS011;2286;51.570;7.090;2022-07-04T15:10:36;1.57;;;1.23;;
4547;SDS011;2286;51.570;7.090;2022-07-04T15:13:03;2.50;;;1.17;;
4547;SDS011;2286;51.570;7.090;2022-07-04T15:15:30;1.50;;;1.37;;
4547;SDS011;2286;51.570;7.090;2022-07-04T15:17:58;2.60;;;1.50;;
4547;SDS011;2286;51.570;7.090;2022-07-04T15:20:25;4.67;;;1.30;;
4547;SDS011;2286;51.570;7.090;2022-07-04T15:23:10;2.77;;;1.30;;
4547;SDS011;2286;51.570;7.090;2022-07-04T15:25:54;4.00;;;1.33;;
4547;SDS011;2286;51.570;7.090;2022-07-04T15:28:21;4.40;;;1.80;;
4547;SDS011;2286;51.570;7.090;2022-07-04T15:30:48;3.20;;;1.40;;
4547;SDS011;2286;51.570;7.090;2022-07-04T15:33:16;2.73;;;1.30;;
4547;SDS011;2286;51.570;7.090;2022-07-04T15:35:43;2.40;;;1.27;;
4547;SDS011;2286;51.570;7.090;2022-07-04T15:38:11;1.50;;;1.10;;
4547;SDS011;2286;51.570;7.090;2022-07-04T15:40:40;2.17;;;1.20;;
4547;SDS011;2286;51.570;7.090;2022-07-04T15:43:07;2.50;;;1.10;;